createdAt,value
2022-11-14T00:03:59.135Z,70.23
2022-11-14T00:09:19.794Z,70.50
2022-11-14T00:14:40.438Z,70.90
2022-11-14T00:20:00.888Z,71.31
2022-11-14T00:25:21.603Z,71.92
2022-11-14T00:30:42.367Z,72.47
2022-11-14T00:36:03.201Z,72.83
2022-11-14T00:41:24.270Z,72.82
2022-11-14T00:46:44.926Z,72.93
2022-11-14T00:52:05.725Z,73.06
2022-11-14T00:57:26.245Z,72.95
2022-11-14T01:02:46.898Z,73.12
2022-11-14T01:08:07.668Z,72.97
2022-11-14T01:13:32.327Z,73.28
2022-11-14T01:18:52.926Z,72.67
2022-11-14T01:24:13.840Z,72.74
2022-11-14T01:29:34.684Z,72.74
2022-11-14T01:34:55.328Z,72.54
2022-11-14T01:40:16.430Z,72.60
2022-11-14T01:45:49.352Z,73.00
2022-11-14T01:51:36.536Z,73.39
2022-11-14T01:57:00.232Z,72.78
2022-11-14T02:02:24.858Z,72.42
2022-11-14T02:07:45.795Z,72.36
2022-11-14T02:13:07.338Z,72.08
2022-11-14T02:18:40.352Z,71.96
2022-11-14T02:24:01.194Z,70.95
2022-11-14T02:29:21.596Z,70.42
2022-11-14T02:34:42.499Z,70.31
2022-11-14T02:40:03.249Z,69.96
2022-11-14T02:45:24.776Z,69.40
2022-11-14T02:50:45.640Z,68.70
2022-11-14T02:56:07.005Z,68.14
2022-11-14T03:01:27.713Z,68.26
2022-11-14T03:06:48.405Z,67.87
2022-11-14T03:12:08.858Z,67.79
2022-11-14T03:17:32.813Z,67.16
2022-11-14T03:22:53.894Z,67.39
2022-11-14T03:28:14.521Z,66.76
2022-11-14T03:33:36.118Z,66.71
2022-11-14T03:38:56.908Z,66.97
2022-11-14T03:44:18.037Z,66.63
2022-11-14T03:49:38.908Z,66.42
2022-11-14T03:54:59.777Z,66.15
2022-11-14T04:00:20.650Z,66.19
2022-11-14T04:05:45.450Z,65.31
2022-11-14T04:11:06.449Z,65.86
2022-11-14T04:16:26.931Z,65.82
2022-11-14T04:21:47.731Z,65.54
2022-11-14T04:27:08.684Z,65.33
2022-11-14T04:32:29.470Z,65.14
2022-11-14T04:37:50.518Z,64.76
2022-11-14T04:43:11.051Z,64.74
2022-11-14T04:48:32.021Z,64.83
2022-11-14T04:53:52.939Z,64.78
2022-11-14T04:59:19.639Z,64.78
2022-11-14T05:04:41.442Z,65.26
2022-11-14T05:10:02.267Z,64.95
2022-11-14T05:15:23.085Z,64.77
2022-11-14T05:20:44.169Z,65.01
2022-11-14T05:26:07.206Z,65.21
2022-11-14T05:31:27.756Z,64.94
2022-11-14T05:36:48.463Z,65.20
2022-11-14T05:42:09.126Z,64.89
2022-11-14T05:47:30.008Z,65.08
2022-11-14T05:52:50.695Z,64.75
2022-11-14T05:58:11.419Z,64.85
2022-11-14T06:03:36.051Z,64.33
2022-11-14T06:08:56.740Z,64.40
2022-11-14T06:14:17.523Z,64.28
2022-11-14T06:19:38.252Z,64.09
2022-11-14T06:24:58.683Z,64.47
2022-11-14T06:30:19.620Z,64.56
2022-11-14T06:35:40.618Z,64.24
2022-11-14T06:41:12.461Z,63.27
2022-11-14T06:46:33.578Z,64.18
2022-11-14T06:51:54.530Z,64.34
2022-11-14T06:57:15.100Z,64.42
2022-11-14T07:02:35.627Z,63.07
2022-11-14T07:07:57.902Z,61.51
2022-11-14T07:13:18.726Z,60.31
2022-11-14T07:18:39.346Z,59.69
2022-11-14T07:24:00.341Z,59.47
2022-11-14T07:29:21.203Z,58.27
2022-11-14T07:34:41.775Z,57.44
2022-11-14T07:40:02.355Z,54.54
2022-11-14T07:45:22.822Z,51.39
2022-11-14T07:50:43.967Z,50.31
2022-11-14T07:56:06.404Z,50.83
2022-11-14T08:01:26.846Z,53.32
2022-11-14T08:06:47.754Z,55.37
2022-11-14T08:12:08.494Z,55.90
2022-11-14T08:17:29.386Z,56.10
2022-11-14T08:22:53.319Z,56.51
2022-11-14T08:28:14.028Z,57.09
2022-11-14T08:33:34.886Z,57.43
2022-11-14T08:39:01.484Z,57.39
2022-11-14T08:44:22.373Z,58.51
2022-11-14T08:49:42.968Z,58.83
2022-11-14T08:55:03.977Z,58.61
2022-11-14T09:00:25.136Z,58.63
2022-11-14T09:05:51.706Z,58.69
2022-11-14T09:11:14.350Z,59.31
2022-11-14T09:16:38.510Z,59.40
2022-11-14T09:21:59.158Z,59.74
2022-11-14T09:27:19.844Z,59.94
2022-11-14T09:32:40.668Z,59.62
2022-11-14T09:38:20.245Z,59.81
2022-11-14T09:43:59.287Z,59.43
2022-11-14T09:49:43.457Z,60.18
2022-11-14T09:55:20.069Z,59.88
2022-11-14T10:00:50.918Z,59.71
2022-11-14T10:06:15.832Z,59.93
2022-11-14T10:11:40.614Z,59.33
2022-11-14T10:17:15.244Z,58.29
2022-11-14T10:22:48.065Z,59.18
2022-11-14T10:29:04.245Z,59.12
2022-11-14T10:34:35.110Z,58.76
2022-11-14T10:40:03.687Z,59.87
2022-11-14T10:45:28.825Z,59.72
2022-11-14T10:50:55.118Z,60.04
2022-11-14T10:56:15.941Z,60.20
2022-11-14T11:01:45.403Z,60.22
2022-11-14T11:07:09.191Z,60.05
2022-11-14T11:12:44.792Z,60.53
2022-11-14T11:18:26.044Z,59.79
2022-11-14T11:23:51.331Z,59.32
2022-11-14T11:29:12.312Z,59.53
2022-11-14T11:34:33.683Z,59.59
2022-11-14T11:40:01.572Z,57.90
2022-11-14T11:45:22.998Z,58.99
2022-11-14T11:50:44.256Z,59.55
2022-11-14T11:56:07.578Z,59.42
2022-11-14T12:01:28.474Z,59.67
2022-11-14T12:07:09.407Z,59.28
2022-11-14T12:12:32.898Z,60.28
2022-11-14T12:18:08.373Z,60.19
2022-11-14T12:23:51.024Z,59.53
2022-11-14T12:29:50.354Z,59.93
2022-11-14T12:35:18.118Z,59.37
2022-11-14T12:40:41.529Z,59.50
2022-11-14T12:46:12.137Z,59.69
2022-11-14T12:51:35.814Z,59.60
2022-11-14T12:57:00.390Z,59.75
2022-11-14T13:03:00.582Z,59.00
2022-11-14T13:08:52.132Z,59.20
2022-11-14T13:14:31.811Z,59.76
2022-11-14T13:20:11.502Z,59.77
2022-11-14T13:25:32.475Z,59.85
2022-11-14T13:31:25.469Z,58.94
2022-11-14T13:37:05.139Z,59.44
2022-11-14T13:42:50.196Z,59.45
2022-11-14T13:48:53.364Z,59.95
2022-11-14T13:54:18.032Z,60.07
2022-11-14T13:59:51.392Z,60.26
2022-11-14T14:05:24.904Z,60.07
2022-11-14T14:11:10.137Z,60.29
2022-11-14T14:16:45.874Z,60.36
2022-11-14T14:22:25.119Z,60.63
2022-11-14T14:27:56.434Z,61.12
2022-11-14T14:33:17.966Z,61.03
2022-11-14T14:38:39.714Z,61.07
2022-11-14T14:44:00.935Z,61.05
2022-11-14T14:49:35.350Z,61.28
2022-11-14T14:54:56.893Z,61.61
2022-11-14T15:00:22.100Z,61.81
2022-11-14T15:05:43.000Z,61.66
2022-11-14T15:11:04.594Z,61.89
2022-11-14T15:16:26.440Z,61.82
2022-11-14T15:22:01.533Z,61.64
2022-11-14T15:27:22.352Z,61.99
2022-11-14T15:32:51.584Z,62.00
2022-11-14T15:43:55.459Z,62.29
2022-11-14T15:49:20.487Z,62.11
2022-11-14T15:54:41.896Z,62.19
2022-11-14T16:00:03.300Z,62.20
2022-11-14T16:05:29.182Z,62.25
2022-11-14T16:10:49.889Z,62.41
2022-11-14T16:16:10.850Z,62.47
2022-11-14T16:21:32.312Z,62.59
2022-11-14T16:26:53.025Z,62.46
2022-11-14T16:32:14.603Z,62.45
2022-11-14T16:37:35.790Z,62.47
2022-11-14T16:42:59.008Z,62.32
2022-11-14T16:48:20.000Z,62.31
2022-11-14T16:53:40.919Z,62.55
2022-11-14T16:59:02.018Z,62.53
2022-11-14T17:04:23.045Z,62.41
2022-11-14T17:09:44.098Z,62.20
2022-11-14T17:15:06.047Z,62.14
2022-11-14T17:20:27.143Z,62.26
2022-11-14T17:25:48.338Z,62.19
2022-11-14T17:31:17.731Z,62.06
2022-11-14T17:36:39.134Z,61.76
2022-11-14T17:42:00.290Z,61.90
2022-11-14T17:47:21.550Z,61.81
2022-11-14T17:52:42.765Z,61.69
2022-11-14T17:58:03.852Z,61.91
2022-11-14T18:03:25.674Z,61.79
2022-11-14T18:08:47.605Z,61.71
2022-11-14T18:14:08.538Z,61.88
2022-11-14T18:19:29.480Z,61.70
2022-11-14T18:24:50.505Z,61.26
2022-11-14T18:30:39.362Z,61.21
2022-11-14T18:36:00.892Z,60.76
2022-11-14T18:41:22.579Z,61.29
2022-11-14T18:46:43.576Z,61.17
2022-11-14T18:52:10.317Z,60.35
2022-11-14T18:57:36.518Z,60.60
2022-11-14T19:03:00.066Z,60.33
2022-11-14T19:08:23.188Z,60.33
2022-11-14T19:13:44.112Z,60.45
2022-11-14T19:19:06.559Z,60.03
2022-11-14T19:24:27.254Z,60.48
2022-11-14T19:29:48.318Z,60.34
2022-11-14T19:35:09.673Z,59.89
2022-11-14T19:40:31.178Z,59.51
2022-11-14T19:45:51.955Z,59.42
2022-11-14T19:51:14.499Z,59.23
2022-11-14T19:56:35.064Z,59.65
2022-11-14T20:01:56.366Z,59.15
2022-11-14T20:07:17.383Z,59.17
2022-11-14T20:12:37.847Z,58.94
2022-11-14T20:17:58.423Z,59.00
2022-11-14T20:23:19.156Z,59.09
2022-11-14T20:28:41.082Z,59.04
2022-11-14T20:34:02.026Z,59.05
2022-11-14T20:39:23.254Z,59.02
2022-11-14T20:44:43.943Z,59.20
2022-11-14T20:50:05.892Z,59.39
2022-11-14T20:55:26.544Z,59.21
2022-11-14T21:00:49.866Z,59.21
2022-11-14T21:06:15.778Z,59.29
2022-11-14T21:11:36.743Z,59.42
2022-11-14T21:16:57.646Z,59.20
2022-11-14T21:22:18.487Z,59.37
2022-11-14T21:27:39.259Z,59.28
2022-11-14T21:33:00.091Z,59.18
2022-11-14T21:38:21.116Z,59.20
2022-11-14T21:43:42.325Z,59.38
2022-11-14T21:49:03.333Z,59.25
2022-11-14T21:54:24.206Z,59.39
2022-11-14T21:59:45.051Z,59.46
2022-11-14T22:05:07.260Z,59.64
2022-11-14T22:10:28.015Z,59.16
2022-11-14T22:15:48.647Z,59.17
2022-11-14T22:21:09.683Z,59.64
2022-11-14T22:26:31.093Z,59.44
2022-11-14T22:31:53.169Z,59.26
2022-11-14T22:37:13.856Z,59.49
2022-11-14T22:42:34.668Z,58.90
2022-11-14T22:47:58.978Z,58.96
2022-11-14T22:53:19.597Z,59.65
2022-11-14T22:58:41.865Z,59.38
2022-11-14T23:04:05.077Z,58.98
2022-11-14T23:09:27.431Z,59.29
2022-11-14T23:14:48.365Z,59.22
2022-11-14T23:20:15.113Z,59.32
2022-11-14T23:25:38.138Z,59.29
2022-11-14T23:30:59.832Z,59.14
2022-11-14T23:36:20.967Z,58.71
2022-11-14T23:41:41.757Z,59.04
2022-11-14T23:47:02.797Z,58.93
2022-11-14T23:52:23.642Z,59.25
2022-11-14T23:57:44.496Z,59.72
